Time,TemperatureF,DewpointF,PressureIn,WindDirection,WindDirectionDegrees,WindSpeedMPH,WindSpeedGustMPH,Humidity,HourlyPrecipIn,Conditions,Clouds,dailyrainin,SoftwareType,DateUTC
2013-06-29 00:04:00,61.9,61.3,29.49,WSW,247,0.0,-999.0,98,-99.99,,,0.00,Acu-Link.com,2013-06-29 04:04:00,
2013-06-29 00:19:00,61.9,61.3,29.50,WSW,247,0.0,-999.0,98,-99.99,,,0.00,Acu-Link.com,2013-06-29 04:19:00,
2013-06-29 00:35:00,61.9,61.3,29.50,WSW,247,0.0,-999.0,98,-99.99,,,0.00,Acu-Link.com,2013-06-29 04:35:00,
2013-06-29 00:50:00,61.9,61.3,29.49,WSW,247,0.0,-999.0,98,-99.99,,,0.00,Acu-Link.com,2013-06-29 04:50:00,
2013-06-29 01:05:00,61.9,61.3,29.48,WSW,247,0.0,-999.0,98,-99.99,,,0.00,Acu-Link.com,2013-06-29 05:05:00,
2013-06-29 01:20:00,61.9,61.3,29.48,WSW,247,0.0,-999.0,98,-99.99,,,0.00,Acu-Link.com,2013-06-29 05:20:00,
2013-06-29 01:35:00,61.9,61.3,29.49,WSW,247,0.0,-999.0,98,-99.99,,,0.00,Acu-Link.com,2013-06-29 05:35:00,
2013-06-29 01:51:00,61.9,61.3,29.49,WSW,247,0.0,-999.0,98,-99.99,,,0.00,Acu-Link.com,2013-06-29 05:51:00,
2013-06-29 02:06:00,61.9,61.3,29.49,WSW,247,0.0,-999.0,98,-99.99,,,0.00,Acu-Link.com,2013-06-29 06:06:00,
2013-06-29 02:21:00,61.9,61.3,29.49,WSW,247,0.0,-999.0,98,-99.99,,,0.00,Acu-Link.com,2013-06-29 06:21:00,
2013-06-29 02:37:00,61.9,61.3,29.49,WSW,247,0.0,-999.0,98,-99.99,,,0.01,Acu-Link.com,2013-06-29 06:37:00,
2013-06-29 02:52:00,61.9,61.3,29.48,WSW,247,0.0,-999.0,98,-99.99,,,0.05,Acu-Link.com,2013-06-29 06:52:00,
2013-06-29 03:07:00,61.7,61.1,29.48,WSW,247,0.0,-999.0,98,-99.99,,,0.05,Acu-Link.com,2013-06-29 07:07:00,
2013-06-29 03:22:00,61.7,61.1,29.47,WSW,247,0.0,-999.0,98,-99.99,,,0.06,Acu-Link.com,2013-06-29 07:22:00,
2013-06-29 03:37:00,61.9,61.3,29.48,WSW,247,0.0,-999.0,98,-99.99,,,0.06,Acu-Link.com,2013-06-29 07:37:00,
2013-06-29 03:53:00,61.7,61.1,29.47,WSW,247,0.0,-999.0,98,-99.99,,,0.06,Acu-Link.com,2013-06-29 07:53:00,
2013-06-29 04:09:00,61.7,61.1,29.47,WSW,247,0.0,-999.0,98,-99.99,,,0.06,Acu-Link.com,2013-06-29 08:09:00,
2013-06-29 04:24:00,61.7,61.1,29.47,WSW,247,0.0,-999.0,98,-99.99,,,0.06,Acu-Link.com,2013-06-29 08:24:00,
2013-06-29 04:39:00,61.7,61.1,29.48,WSW,247,0.0,-999.0,98,-99.99,,,0.06,Acu-Link.com,2013-06-29 08:39:00,
2013-06-29 04:54:00,61.7,61.1,29.47,WSW,247,0.0,-999.0,98,-99.99,,,0.06,Acu-Link.com,2013-06-29 08:54:00,
2013-06-29 05:09:00,61.9,61.3,29.49,WSW,247,0.0,-999.0,98,-99.99,,,0.06,Acu-Link.com,2013-06-29 09:09:00,
2013-06-29 05:24:00,61.9,61.3,29.48,WSW,247,0.0,-999.0,98,-99.99,,,0.06,Acu-Link.com,2013-06-29 09:24:00,
2013-06-29 05:39:00,61.9,61.3,29.49,WSW,247,0.0,-999.0,98,-99.99,,,0.06,Acu-Link.com,2013-06-29 09:39:00,
2013-06-29 05:55:00,61.9,61.3,29.49,WSW,247,0.0,-999.0,98,-99.99,,,0.07,Acu-Link.com,2013-06-29 09:55:00,
2013-06-29 06:10:00,62.1,61.5,29.50,WSW,247,0.0,-999.0,98,-99.99,,,0.07,Acu-Link.com,2013-06-29 10:10:00,
2013-06-29 06:25:00,62.1,61.5,29.51,WSW,247,0.0,-999.0,98,-99.99,,,0.08,Acu-Link.com,2013-06-29 10:25:00,
2013-06-29 06:40:00,62.1,61.5,29.51,South,180,0.0,-999.0,98,-99.99,,,0.16,Acu-Link.com,2013-06-29 10:40:00,
2013-06-29 06:55:00,62.1,61.5,29.51,WSW,247,0.0,-999.0,98,-99.99,,,0.44,Acu-Link.com,2013-06-29 10:55:00,
2013-06-29 07:11:00,62.4,61.8,29.50,WSW,247,0.0,-999.0,98,-99.99,,,0.48,Acu-Link.com,2013-06-29 11:11:00,
2013-06-29 07:26:00,62.4,61.8,29.49,WSW,247,0.0,-999.0,98,-99.99,,,0.52,Acu-Link.com,2013-06-29 11:26:00,
2013-06-29 07:41:00,62.4,61.8,29.51,WSW,247,0.0,-999.0,98,-99.99,,,0.57,Acu-Link.com,2013-06-29 11:41:00,
2013-06-29 07:56:00,63.0,62.4,29.51,WSW,247,0.0,-999.0,98,-99.99,,,0.58,Acu-Link.com,2013-06-29 11:56:00,
2013-06-29 08:11:00,63.5,62.9,29.50,WSW,247,0.0,-999.0,98,-99.99,,,0.58,Acu-Link.com,2013-06-29 12:11:00,
2013-06-29 08:27:00,64.0,63.4,29.52,WSW,247,0.0,-999.0,98,-99.99,,,0.59,Acu-Link.com,2013-06-29 12:27:00,
2013-06-29 08:42:00,64.4,63.8,29.51,WSW,247,0.0,-999.0,98,-99.99,,,0.59,Acu-Link.com,2013-06-29 12:42:00,
2013-06-29 08:57:00,64.4,63.8,29.51,WSW,247,0.0,-999.0,98,-99.99,,,0.59,Acu-Link.com,2013-06-29 12:57:00,
2013-06-29 09:13:00,64.9,64.3,29.52,WSW,247,0.0,-999.0,98,-99.99,,,0.59,Acu-Link.com,2013-06-29 13:13:00,
2013-06-29 09:28:00,65.1,64.5,29.52,WSW,247,0.0,-999.0,98,-99.99,,,0.59,Acu-Link.com,2013-06-29 13:28:00,
2013-06-29 09:43:00,64.9,64.3,29.52,WSW,247,0.0,-999.0,98,-99.99,,,0.59,Acu-Link.com,2013-06-29 13:43:00,
2013-06-29 09:58:00,65.1,64.5,29.51,WSW,247,0.0,-999.0,98,-99.99,,,0.59,Acu-Link.com,2013-06-29 13:58:00,
2013-06-29 10:13:00,65.5,64.9,29.51,WSW,247,0.0,-999.0,98,-99.99,,,0.59,Acu-Link.com,2013-06-29 14:13:00,
2013-06-29 10:29:00,66.0,65.4,29.51,WSW,247,0.0,-999.0,98,-99.99,,,0.59,Acu-Link.com,2013-06-29 14:29:00,
2013-06-29 10:44:00,66.4,65.8,29.52,WSW,247,0.0,-999.0,98,-99.99,,,0.59,Acu-Link.com,2013-06-29 14:44:00,
2013-06-29 10:59:00,66.9,66.3,29.52,WSW,247,0.0,-999.0,98,-99.99,,,0.59,Acu-Link.com,2013-06-29 14:59:00,
2013-06-29 11:14:00,67.1,66.5,29.52,WSW,247,0.0,-999.0,98,-99.99,,,0.59,Acu-Link.com,2013-06-29 15:14:00,
2013-06-29 11:29:00,67.5,66.9,29.52,West,270,0.0,-999.0,98,-99.99,,,0.59,Acu-Link.com,2013-06-29 15:29:00,
2013-06-29 11:45:00,68.4,67.5,29.51,WNW,292,0.0,-999.0,97,-99.99,,,0.59,Acu-Link.com,2013-06-29 15:45:00,
2013-06-29 12:00:00,68.5,66.1,29.51,West,270,0.0,-999.0,92,-99.99,,,0.59,Acu-Link.com,2013-06-29 16:00:00,
2013-06-29 12:15:00,69.1,61.2,29.51,East,90,0.0,-999.0,76,-99.99,,,0.59,Acu-Link.com,2013-06-29 16:15:00,
2013-06-29 12:31:00,70.0,69.4,29.51,North,0,0.0,-999.0,98,-99.99,,,0.59,Acu-Link.com,2013-06-29 16:31:00,
2013-06-29 12:46:00,71.6,71.0,29.51,SSE,157,1.7,-999.0,98,-99.99,,,0.59,Acu-Link.com,2013-06-29 16:46:00,
2013-06-29 13:01:00,73.2,72.6,29.50,NNE,22,1.1,-999.0,98,-99.99,,,0.59,Acu-Link.com,2013-06-29 17:01:00,
2013-06-29 13:16:00,74.5,73.9,29.49,NNW,337,1.1,-999.0,98,-99.99,,,0.59,Acu-Link.com,2013-06-29 17:16:00,
2013-06-29 13:31:00,75.2,74.6,29.49,NNW,337,0.0,-999.0,98,-99.99,,,0.59,Acu-Link.com,2013-06-29 17:31:00,
2013-06-29 13:47:00,75.6,75.0,29.49,SW,225,1.1,-999.0,98,-99.99,,,0.59,Acu-Link.com,2013-06-29 17:47:00,
2013-06-29 14:02:00,75.0,74.4,29.48,SSW,202,0.0,-999.0,98,-99.99,,,0.59,Acu-Link.com,2013-06-29 18:02:00,
2013-06-29 14:17:00,73.8,73.2,29.48,West,270,1.1,-999.0,98,-99.99,,,0.59,Acu-Link.com,2013-06-29 18:17:00,
2013-06-29 14:32:00,74.3,73.7,29.48,SSW,202,2.2,-999.0,98,-99.99,,,0.59,Acu-Link.com,2013-06-29 18:32:00,
2013-06-29 14:47:00,74.8,74.2,29.48,NW,315,0.0,-999.0,98,-99.99,,,0.59,Acu-Link.com,2013-06-29 18:47:00,
2013-06-29 15:03:00,74.8,74.2,29.47,SSW,202,0.0,-999.0,98,-99.99,,,0.59,Acu-Link.com,2013-06-29 19:03:00,
2013-06-29 15:18:00,73.6,73.0,29.47,NW,315,1.1,-999.0,98,-99.99,,,0.59,Acu-Link.com,2013-06-29 19:18:00,
2013-06-29 15:33:00,73.0,72.4,29.46,West,270,0.0,-999.0,98,-99.99,,,0.59,Acu-Link.com,2013-06-29 19:33:00,
2013-06-29 15:48:00,72.1,71.5,29.47,NW,315,1.7,-999.0,98,-99.99,,,0.59,Acu-Link.com,2013-06-29 19:48:00,
2013-06-29 16:03:00,72.0,71.4,29.46,WNW,292,0.0,-999.0,98,-99.99,,,0.59,Acu-Link.com,2013-06-29 20:03:00,
2013-06-29 16:19:00,71.8,71.2,29.47,NW,315,0.0,-999.0,98,-99.99,,,0.59,Acu-Link.com,2013-06-29 20:19:00,
2013-06-29 16:34:00,69.3,68.7,29.53,WNW,292,5.8,-999.0,98,-99.99,,,0.59,Acu-Link.com,2013-06-29 20:34:00,
2013-06-29 16:49:00,67.5,66.9,29.51,NNE,22,0.0,-999.0,98,-99.99,,,0.67,Acu-Link.com,2013-06-29 20:49:00,
2013-06-29 17:05:00,67.3,66.7,29.50,NE,45,1.1,-999.0,98,-99.99,,,0.73,Acu-Link.com,2013-06-29 21:05:00,
2013-06-29 17:20:00,67.3,66.7,29.51,WNW,292,0.0,-999.0,98,-99.99,,,0.75,Acu-Link.com,2013-06-29 21:20:00,
2013-06-29 17:35:00,67.1,66.5,29.51,NNW,337,1.7,-999.0,98,-99.99,,,0.76,Acu-Link.com,2013-06-29 21:35:00,
2013-06-29 17:50:00,67.6,67.0,29.50,NNE,22,1.7,-999.0,98,-99.99,,,0.80,Acu-Link.com,2013-06-29 21:50:00,
2013-06-29 18:05:00,67.5,66.9,29.52,NW,315,0.0,-999.0,98,-99.99,,,0.82,Acu-Link.com,2013-06-29 22:05:00,
2013-06-29 18:21:00,67.3,66.7,29.51,SW,225,3.7,-999.0,98,-99.99,,,0.82,Acu-Link.com,2013-06-29 22:21:00,
2013-06-29 18:36:00,67.3,66.7,29.52,ENE,67,1.1,-999.0,98,-99.99,,,0.94,Acu-Link.com,2013-06-29 22:36:00,
2013-06-29 18:51:00,67.3,66.7,29.53,WNW,292,0.0,-999.0,98,-99.99,,,0.95,Acu-Link.com,2013-06-29 22:51:00,
2013-06-29 19:06:00,67.1,66.5,29.53,South,180,1.7,-999.0,98,-99.99,,,0.95,Acu-Link.com,2013-06-29 23:06:00,
2013-06-29 19:22:00,67.3,66.7,29.54,NW,315,0.0,-999.0,98,-99.99,,,0.95,Acu-Link.com,2013-06-29 23:22:00,
2013-06-29 19:37:00,67.5,66.9,29.54,SW,225,0.0,-999.0,98,-99.99,,,0.96,Acu-Link.com,2013-06-29 23:37:00,
2013-06-29 19:52:00,67.5,66.9,29.54,NNE,22,0.0,-999.0,98,-99.99,,,0.96,Acu-Link.com,2013-06-29 23:52:00,
2013-06-29 20:08:00,67.3,66.7,29.55,NW,315,0.0,-999.0,98,-99.99,,,0.96,Acu-Link.com,2013-06-30 00:08:00,
2013-06-29 20:23:00,67.3,66.4,29.55,NNW,337,0.0,-999.0,97,-99.99,,,0.96,Acu-Link.com,2013-06-30 00:23:00,
2013-06-29 20:38:00,67.3,66.1,29.55,SSW,202,0.0,-999.0,96,-99.99,,,0.97,Acu-Link.com,2013-06-30 00:38:00,
2013-06-29 20:53:00,67.1,65.6,29.56,NW,315,0.0,-999.0,95,-99.99,,,0.97,Acu-Link.com,2013-06-30 00:53:00,
2013-06-29 21:09:00,66.6,64.8,29.57,NW,315,0.0,-999.0,94,-99.99,,,0.97,Acu-Link.com,2013-06-30 01:09:00,
2013-06-29 21:24:00,66.4,64.6,29.57,NW,315,0.0,-999.0,94,-99.99,,,0.97,Acu-Link.com,2013-06-30 01:24:00,
2013-06-29 21:39:00,66.2,64.4,29.58,SW,225,0.0,-999.0,94,-99.99,,,0.97,Acu-Link.com,2013-06-30 01:39:00,
2013-06-29 21:54:00,66.2,64.4,29.59,East,90,0.0,-999.0,94,-99.99,,,0.97,Acu-Link.com,2013-06-30 01:54:00,
2013-06-29 22:09:00,66.0,64.2,29.61,SW,225,0.0,-999.0,94,-99.99,,,0.97,Acu-Link.com,2013-06-30 02:09:00,
2013-06-29 22:25:00,66.0,63.6,29.60,WNW,292,0.0,-999.0,92,-99.99,,,0.97,Acu-Link.com,2013-06-30 02:25:00,
2013-06-29 22:40:00,65.7,63.3,29.60,WNW,292,0.0,-999.0,92,-99.99,,,0.97,Acu-Link.com,2013-06-30 02:40:00,
2013-06-29 22:55:00,65.5,63.1,29.61,WNW,292,0.0,-999.0,92,-99.99,,,0.97,Acu-Link.com,2013-06-30 02:55:00,
2013-06-29 23:10:00,65.3,62.9,29.61,WNW,292,0.0,-999.0,92,-99.99,,,0.97,Acu-Link.com,2013-06-30 03:10:00,
2013-06-29 23:25:00,65.3,62.9,29.61,ESE,112,0.0,-999.0,92,-99.99,,,0.97,Acu-Link.com,2013-06-30 03:25:00,
2013-06-29 23:41:00,65.1,63.0,29.62,SE,135,0.0,-999.0,93,-99.99,,,0.97,Acu-Link.com,2013-06-30 03:41:00,
2013-06-29 23:56:00,64.8,62.7,29.62,NNW,337,0.0,-999.0,93,-99.99,,,0.97,Acu-Link.com,2013-06-30 03:56:00,